sensor_id;sensor_type;location;lat;lon;timestamp;pressure;altitude;pressure_sealevel;temperature;humidity
60437;BME280;46289;51.992;4.498;2022-07-17T00:01:21;102909.19;;;13.92;100.00
60437;BME280;46289;51.992;4.498;2022-07-17T00:03:54;102902.94;;;13.90;100.00
60437;BME280;46289;51.992;4.498;2022-07-17T00:06:24;102909.06;;;13.89;100.00
60437;BME280;46289;51.992;4.498;2022-07-17T00:08:54;102898.44;;;13.86;100.00
60437;BME280;46289;51.992;4.498;2022-07-17T00:11:24;102900.97;;;13.83;100.00
60437;BME280;46289;51.992;4.498;2022-07-17T00:13:55;102909.88;;;13.87;100.00
60437;BME280;46289;51.992;4.498;2022-07-17T00:16:26;102898.44;;;13.86;100.00
60437;BME280;46289;51.992;4.498;2022-07-17T00:18:59;102904.69;;;13.90;100.00
60437;BME280;46289;51.992;4.498;2022-07-17T00:21:32;102905.50;;;13.87;100.00
60437;BME280;46289;51.992;4.498;2022-07-17T00:24:03;102908.88;;;13.83;100.00
60437;BME280;46289;51.992;4.498;2022-07-17T00:26:33;102910.47;;;13.78;100.00
60437;BME280;46289;51.992;4.498;2022-07-17T00:29:04;102913.06;;;13.77;100.00
60437;BME280;46289;51.992;4.498;2022-07-17T00:31:34;102908.56;;;13.74;100.00
60437;BME280;46289;51.992;4.498;2022-07-17T00:34:07;102897.19;;;13.75;100.00
60437;BME280;46289;51.992;4.498;2022-07-17T00:36:38;102901.56;;;13.74;100.00
60437;BME280;46289;51.992;4.498;2022-07-17T00:39:08;102897.97;;;13.72;100.00
60437;BME280;46289;51.992;4.498;2022-07-17T00:41:39;102894.44;;;13.72;100.00
60437;BME280;46289;51.992;4.498;2022-07-17T00:44:13;102892.66;;;13.71;100.00
60437;BME280;46289;51.992;4.498;2022-07-17T00:46:43;102890.91;;;13.71;100.00
60437;BME280;46289;51.992;4.498;2022-07-17T00:49:16;102890.91;;;13.71;100.00
60437;BME280;46289;51.992;4.498;2022-07-17T00:51:46;102892.53;;;13.68;100.00
60437;BME280;46289;51.992;4.498;2022-07-17T00:54:17;102888.97;;;13.66;100.00
60437;BME280;46289;51.992;4.498;2022-07-17T00:56:48;102880.16;;;13.65;100.00
60437;BME280;46289;51.992;4.498;2022-07-17T00:59:23;102873.94;;;13.63;100.00
60437;BME280;46289;51.992;4.498;2022-07-17T01:01:54;102855.53;;;13.65;100.00
60437;BME280;46289;51.992;4.498;2022-07-17T01:04:27;102846.56;;;13.60;100.00
60437;BME280;46289;51.992;4.498;2022-07-17T01:06:58;102845.47;;;13.53;100.00
60437;BME280;46289;51.992;4.498;2022-07-17T01:09:33;102852.47;;;13.51;100.00
60437;BME280;46289;51.992;4.498;2022-07-17T01:12:05;102851.56;;;13.51;100.00
60437;BME280;46289;51.992;4.498;2022-07-17T01:14:46;102861.22;;;13.50;100.00
60437;BME280;46289;51.992;4.498;2022-07-17T01:17:20;102863.81;;;13.49;100.00
60437;BME280;46289;51.992;4.498;2022-07-17T01:19:54;102868.09;;;13.45;100.00
60437;BME280;46289;51.992;4.498;2022-07-17T01:22:28;102873.25;;;13.42;100.00
60437;BME280;46289;51.992;4.498;2022-07-17T01:25:00;102866.13;;;13.39;100.00
60437;BME280;46289;51.992;4.498;2022-07-17T01:27:31;102870.47;;;13.37;100.00
60437;BME280;46289;51.992;4.498;2022-07-17T01:30:02;102877.41;;;13.35;100.00
60437;BME280;46289;51.992;4.498;2022-07-17T01:32:33;102877.41;;;13.35;100.00
60437;BME280;46289;51.992;4.498;2022-07-17T01:35:13;102869.47;;;13.34;100.00
60437;BME280;46289;51.992;4.498;2022-07-17T01:37:48;102870.34;;;13.34;100.00
60437;BME280;46289;51.992;4.498;2022-07-17T01:40:22;102870.25;;;13.31;100.00
60437;BME280;46289;51.992;4.498;2022-07-17T01:42:54;102863.94;;;13.26;100.00
60437;BME280;46289;51.992;4.498;2022-07-17T01:45:35;102869.19;;;13.26;100.00
60437;BME280;46289;51.992;4.498;2022-07-17T01:48:05;102862.97;;;13.24;100.00
60437;BME280;46289;51.992;4.498;2022-07-17T01:50:36;102859.44;;;13.24;100.00
60437;BME280;46289;51.992;4.498;2022-07-17T01:53:09;102869.94;;;13.22;100.00
60437;BME280;46289;51.992;4.498;2022-07-17T01:55:42;102869.78;;;13.18;100.00
60437;BME280;46289;51.992;4.498;2022-07-17T01:58:13;102867.09;;;13.16;100.00
60437;BME280;46289;51.992;4.498;2022-07-17T02:00:44;102867.97;;;13.17;100.00
60437;BME280;46289;51.992;4.498;2022-07-17T02:03:14;102861.72;;;13.15;100.00
60437;BME280;46289;51.992;4.498;2022-07-17T02:05:45;102864.31;;;13.13;100.00
60437;BME280;46289;51.992;4.498;2022-07-17T02:08:18;102866.88;;;13.12;100.00
60437;BME280;46289;51.992;4.498;2022-07-17T02:10:50;102868.53;;;13.08;100.00
60437;BME280;46289;51.992;4.498;2022-07-17T02:13:23;102862.31;;;13.06;100.00
60437;BME280;46289;51.992;4.498;2022-07-17T02:15:53;102859.66;;;13.06;100.00
60437;BME280;46289;51.992;4.498;2022-07-17T02:18:26;102858.72;;;13.04;100.00
60437;BME280;46289;51.992;4.498;2022-07-17T02:20:56;102864.81;;;13.03;100.00
60437;BME280;46289;51.992;4.498;2022-07-17T02:23:31;102862.09;;;13.00;100.00
60437;BME280;46289;51.992;4.498;2022-07-17T02:26:01;102865.34;;;12.93;100.00
60437;BME280;46289;51.992;4.498;2022-07-17T02:28:32;102867.03;;;12.91;100.00
60437;BME280;46289;51.992;4.498;2022-07-17T02:31:02;102864.28;;;12.88;100.00
60437;BME280;46289;51.992;4.498;2022-07-17T02:33:32;102872.19;;;12.88;100.00
60437;BME280;46289;51.992;4.498;2022-07-17T02:36:02;102871.84;;;12.78;100.00
60437;BME280;46289;51.992;4.498;2022-07-17T02:38:35;102878.84;;;12.78;100.00
60437;BME280;46289;51.992;4.498;2022-07-17T02:41:05;102879.69;;;12.77;100.00
60437;BME280;46289;51.992;4.498;2022-07-17T02:43:43;102889.31;;;12.76;100.00
60437;BME280;46289;51.992;4.498;2022-07-17T02:46:13;102900.63;;;12.74;100.00
60437;BME280;46289;51.992;4.498;2022-07-17T02:48:43;102901.31;;;12.68;100.00
60437;BME280;46289;51.992;4.498;2022-07-17T02:51:14;102895.16;;;12.68;100.00
60437;BME280;46289;51.992;4.498;2022-07-17T02:53:46;102896.81;;;12.66;100.00
60437;BME280;46289;51.992;4.498;2022-07-17T02:56:17;102893.25;;;12.64;100.00
60437;BME280;46289;51.992;4.498;2022-07-17T02:58:50;102902.75;;;12.60;100.00
60437;BME280;46289;51.992;4.498;2022-07-17T03:01:20;102906.22;;;12.59;100.00
60437;BME280;46289;51.992;4.498;2022-07-17T03:03:51;102899.06;;;12.55;100.00
60437;BME280;46289;51.992;4.498;2022-07-17T03:06:22;102897.19;;;12.53;100.00
60437;BME280;46289;51.992;4.498;2022-07-17T03:08:55;102892.72;;;12.50;100.00
60437;BME280;46289;51.992;4.498;2022-07-17T03:11:27;102890.91;;;12.48;100.00
60437;BME280;46289;51.992;4.498;2022-07-17T03:14:01;102891.75;;;12.48;100.00
60437;BME280;46289;51.992;4.498;2022-07-17T03:16:31;102890.09;;;12.50;100.00
60437;BME280;46289;51.992;4.498;2022-07-17T03:19:04;102897.03;;;12.48;100.00
60437;BME280;46289;51.992;4.498;2022-07-17T03:21:34;102899.56;;;12.45;100.00
60437;BME280;46289;51.992;4.498;2022-07-17T03:24:07;102899.50;;;12.43;100.00
60437;BME280;46289;51.992;4.498;2022-07-17T03:26:40;102907.34;;;12.42;100.00
60437;BME280;46289;51.992;4.498;2022-07-17T03:29:16;102903.75;;;12.40;100.00
60437;BME280;46289;51.992;4.498;2022-07-17T03:31:52;102903.66;;;12.37;100.00
60437;BME280;46289;51.992;4.498;2022-07-17T03:34:22;102897.38;;;12.33;100.00
60437;BME280;46289;51.992;4.498;2022-07-17T03:36:52;102900.72;;;12.29;100.00
60437;BME280;46289;51.992;4.498;2022-07-17T03:39:25;102899.03;;;12.31;100.00
60437;BME280;46289;51.992;4.498;2022-07-17T03:41:56;102892.88;;;12.31;100.00
60437;BME280;46289;51.992;4.498;2022-07-17T03:44:30;102896.34;;;12.30;100.00
60437;BME280;46289;51.992;4.498;2022-07-17T03:47:00;102886.84;;;12.33;100.00
60437;BME280;46289;51.992;4.498;2022-07-17T03:49:33;102888.69;;;12.36;100.00
60437;BME280;46289;51.992;4.498;2022-07-17T03:52:06;102881.69;;;12.36;100.00
60437;BME280;46289;51.992;4.498;2022-07-17T03:54:39;102883.56;;;12.39;100.00
60437;BME280;46289;51.992;4.498;2022-07-17T03:57:12;102886.19;;;12.39;100.00
60437;BME280;46289;51.992;4.498;2022-07-17T03:59:43;102892.28;;;12.38;100.00
60437;BME280;46289;51.992;4.498;2022-07-17T04:02:13;102894.91;;;12.38;100.00
60437;BME280;46289;51.992;4.498;2022-07-17T04:04:43;102903.69;;;12.38;100.00
60437;BME280;46289;51.992;4.498;2022-07-17T04:07:13;102902.81;;;12.38;100.00
60437;BME280;46289;51.992;4.498;2022-07-17T04:09:59;102904.53;;;12.37;100.00
60437;BME280;46289;51.992;4.498;2022-07-17T04:12:31;102911.53;;;12.37;100.00
60437;BME280;46289;51.992;4.498;2022-07-17T04:15:03;102913.28;;;12.36;100.00
60437;BME280;46289;51.992;4.498;2022-07-17T04:17:33;102921.03;;;12.33;100.00
60437;BME280;46289;51.992;4.498;2022-07-17T04:20:06;102914.81;;;12.31;100.00
60437;BME280;46289;51.992;4.498;2022-07-17T04:22:37;102913.22;;;12.35;100.00
60437;BME280;46289;51.992;4.498;2022-07-17T04:25:13;102909.88;;;12.39;100.00
60437;BME280;46289;51.992;4.498;2022-07-17T04:27:43;102917.94;;;12.43;100.00
60437;BME280;46289;51.992;4.498;2022-07-17T04:30:13;102925.94;;;12.47;100.00
60437;BME280;46289;51.992;4.498;2022-07-17T04:32:43;102930.41;;;12.49;100.00
60437;BME280;46289;51.992;4.498;2022-07-17T04:35:14;102923.63;;;12.56;100.00
60437;BME280;46289;51.992;4.498;2022-07-17T04:37:44;102911.50;;;12.59;100.00
60437;BME280;46289;51.992;4.498;2022-07-17T04:40:17;102903.81;;;12.65;100.00
60437;BME280;46289;51.992;4.498;2022-07-17T04:42:50;102909.44;;;12.74;100.00
60437;BME280;46289;51.992;4.498;2022-07-17T04:45:21;102907.88;;;12.80;100.00
60437;BME280;46289;51.992;4.498;2022-07-17T04:47:51;102908.22;;;12.89;100.00
60437;BME280;46289;51.992;4.498;2022-07-17T04:50:21;102903.28;;;12.98;100.00
60437;BME280;46289;51.992;4.498;2022-07-17T04:52:51;102908.03;;;13.08;100.00
60437;BME280;46289;51.992;4.498;2022-07-17T04:55:24;102901.44;;;13.19;100.00
60437;BME280;46289;51.992;4.498;2022-07-17T04:57:54;102894.91;;;13.33;100.00
60437;BME280;46289;51.992;4.498;2022-07-17T05:00:24;102890.13;;;13.47;100.00
60437;BME280;46289;51.992;4.498;2022-07-17T05:02:55;102890.28;;;13.52;100.00
60437;BME280;46289;51.992;4.498;2022-07-17T05:05:28;102895.38;;;13.74;100.00
60437;BME280;46289;51.992;4.498;2022-07-17T05:07:58;102894.94;;;13.87;100.00
60437;BME280;46289;51.992;4.498;2022-07-17T05:10:31;102889.16;;;13.99;100.00
60437;BME280;46289;51.992;4.498;2022-07-17T05:13:04;102888.81;;;14.15;100.00
60437;BME280;46289;51.992;4.498;2022-07-17T05:15:34;102894.69;;;14.35;100.00
60437;BME280;46289;51.992;4.498;2022-07-17T05:18:07;102890.81;;;14.51;100.00
60437;BME280;46289;51.992;4.498;2022-07-17T05:20:44;102899.09;;;14.64;100.00
60437;BME280;46289;51.992;4.498;2022-07-17T05:23:14;102896.53;;;14.67;100.00
60437;BME280;46289;51.992;4.498;2022-07-17T05:25:46;102900.66;;;14.88;100.00
60437;BME280;46289;51.992;4.498;2022-07-17T05:28:16;102902.16;;;15.10;100.00
60437;BME280;46289;51.992;4.498;2022-07-17T05:30:47;102898.28;;;15.30;100.00
60437;BME280;46289;51.992;4.498;2022-07-17T05:33:17;102904.91;;;15.47;100.00
60437;BME280;46289;51.992;4.498;2022-07-17T05:35:48;102909.47;;;15.53;100.00
60437;BME280;46289;51.992;4.498;2022-07-17T05:38:18;102908.50;;;15.84;100.00
60437;BME280;46289;51.992;4.498;2022-07-17T05:40:51;102901.75;;;15.96;100.00
60437;BME280;46289;51.992;4.498;2022-07-17T05:43:21;102902.34;;;16.22;100.00
60437;BME280;46289;51.992;4.498;2022-07-17T05:45:53;102900.22;;;16.45;99.07
60437;BME280;46289;51.992;4.498;2022-07-17T05:48:23;102894.28;;;16.57;95.02
60437;BME280;46289;51.992;4.498;2022-07-17T05:50:53;102902.50;;;16.69;94.13
60437;BME280;46289;51.992;4.498;2022-07-17T05:53:23;102903.44;;;16.71;92.91
60437;BME280;46289;51.992;4.498;2022-07-17T05:55:56;102899.41;;;16.90;91.57
60437;BME280;46289;51.992;4.498;2022-07-17T05:58:26;102905.81;;;17.01;90.56
60437;BME280;46289;51.992;4.498;2022-07-17T06:00:57;102916.69;;;17.15;88.56
60437;BME280;46289;51.992;4.498;2022-07-17T06:03:26;102903.81;;;17.36;88.70
60437;BME280;46289;51.992;4.498;2022-07-17T06:06:00;102914.63;;;17.47;85.22
60437;BME280;46289;51.992;4.498;2022-07-17T06:08:30;102916.56;;;17.57;86.04
60437;BME280;46289;51.992;4.498;2022-07-17T06:11:03;102927.50;;;17.75;85.32
60437;BME280;46289;51.992;4.498;2022-07-17T06:13:33;102920.03;;;18.06;83.92
60437;BME280;46289;51.992;4.498;2022-07-17T06:16:04;102921.97;;;18.17;81.74
60437;BME280;46289;51.992;4.498;2022-07-17T06:18:36;102920.53;;;18.39;80.22
60437;BME280;46289;51.992;4.498;2022-07-17T06:21:06;102924.97;;;18.40;78.25
60437;BME280;46289;51.992;4.498;2022-07-17T06:23:39;102923.63;;;18.73;78.84
60437;BME280;46289;51.992;4.498;2022-07-17T06:26:13;102925.66;;;18.92;75.32
60437;BME280;46289;51.992;4.498;2022-07-17T06:28:46;102933.38;;;18.72;73.64
60437;BME280;46289;51.992;4.498;2022-07-17T06:31:16;102940.97;;;19.13;74.72
60437;BME280;46289;51.992;4.498;2022-07-17T06:33:46;102935.94;;;19.40;72.96
60437;BME280;46289;51.992;4.498;2022-07-17T06:36:17;102942.50;;;19.77;74.04
60437;BME280;46289;51.992;4.498;2022-07-17T06:38:50;102938.06;;;19.75;70.63
60437;BME280;46289;51.992;4.498;2022-07-17T06:41:23;102951.44;;;19.85;69.95
60437;BME280;46289;51.992;4.498;2022-07-17T06:43:53;102951.72;;;20.22;70.79
60437;BME280;46289;51.992;4.498;2022-07-17T06:46:23;102954.22;;;19.99;68.62
60437;BME280;46289;51.992;4.498;2022-07-17T06:48:53;102947.25;;;20.18;67.71
60437;BME280;46289;51.992;4.498;2022-07-17T06:51:23;102948.13;;;20.14;69.10
60437;BME280;46289;51.992;4.498;2022-07-17T06:53:54;102932.38;;;20.46;68.02
60437;BME280;46289;51.992;4.498;2022-07-17T06:56:27;102947.56;;;20.61;66.30
60437;BME280;46289;51.992;4.498;2022-07-17T06:58:58;102951.09;;;20.58;65.15
60437;BME280;46289;51.992;4.498;2022-07-17T07:01:32;102944.91;;;20.64;65.43
60437;BME280;46289;51.992;4.498;2022-07-17T07:04:11;102945.72;;;20.53;65.03
60437;BME280;46289;51.992;4.498;2022-07-17T07:06:41;102946.81;;;21.01;64.01
60437;BME280;46289;51.992;4.498;2022-07-17T07:09:13;102950.38;;;21.06;62.75
60437;BME280;46289;51.992;4.498;2022-07-17T07:11:46;102952.25;;;21.24;62.55
60437;BME280;46289;51.992;4.498;2022-07-17T07:14:31;102953.06;;;21.15;60.73
60437;BME280;46289;51.992;4.498;2022-07-17T07:17:02;102963.81;;;21.26;61.63
60437;BME280;46289;51.992;4.498;2022-07-17T07:19:32;102946.97;;;21.56;60.29
60437;BME280;46289;51.992;4.498;2022-07-17T07:22:02;102945.19;;;21.69;59.13
60437;BME280;46289;51.992;4.498;2022-07-17T07:24:32;102948.72;;;21.48;58.51
60437;BME280;46289;51.992;4.498;2022-07-17T07:27:05;102954.03;;;21.22;59.64
60437;BME280;46289;51.992;4.498;2022-07-17T07:29:35;102944.31;;;21.65;57.44
60437;BME280;46289;51.992;4.498;2022-07-17T07:32:06;102936.28;;;21.71;58.00
60437;BME280;46289;51.992;4.498;2022-07-17T07:34:38;102940.75;;;21.74;57.69
60437;BME280;46289;51.992;4.498;2022-07-17T07:37:08;102946.09;;;21.62;58.79
60437;BME280;46289;51.992;4.498;2022-07-17T07:39:40;102943.41;;;21.54;58.10
60437;BME280;46289;51.992;4.498;2022-07-17T07:42:13;102946.97;;;22.09;57.51
60437;BME280;46289;51.992;4.498;2022-07-17T07:44:44;102938.09;;;21.80;56.28
60437;BME280;46289;51.992;4.498;2022-07-17T07:47:15;102937.19;;;22.02;56.22
60437;BME280;46289;51.992;4.498;2022-07-17T07:49:45;102938.03;;;22.21;54.08
60437;BME280;46289;51.992;4.498;2022-07-17T07:52:15;102938.03;;;22.33;54.08
60437;BME280;46289;51.992;4.498;2022-07-17T07:54:45;102943.38;;;22.35;54.34
60437;BME280;46289;51.992;4.498;2022-07-17T07:57:18;102934.47;;;22.31;55.00
60437;BME280;46289;51.992;4.498;2022-07-17T07:59:48;102930.88;;;22.38;55.65
60437;BME280;46289;51.992;4.498;2022-07-17T08:02:19;102936.13;;;22.81;54.70
60437;BME280;46289;51.992;4.498;2022-07-17T08:04:49;102937.75;;;23.02;55.05
60437;BME280;46289;51.992;4.498;2022-07-17T08:07:20;102936.78;;;23.16;53.19
60437;BME280;46289;51.992;4.498;2022-07-17T08:09:50;102930.59;;;23.07;51.75
60437;BME280;46289;51.992;4.498;2022-07-17T08:12:24;102929.56;;;23.29;51.62
60437;BME280;46289;51.992;4.498;2022-07-17T08:15:11;102926.16;;;23.04;50.26
60437;BME280;46289;51.992;4.498;2022-07-17T08:17:43;102928.84;;;23.01;50.61
60437;BME280;46289;51.992;4.498;2022-07-17T08:20:14;102930.75;;;22.84;50.89
60437;BME280;46289;51.992;4.498;2022-07-17T08:22:46;102931.19;;;23.53;50.98
60437;BME280;46289;51.992;4.498;2022-07-17T08:25:33;102930.34;;;23.54;49.74
60437;BME280;46289;51.992;4.498;2022-07-17T08:28:07;102926.78;;;23.46;49.32
60437;BME280;46289;51.992;4.498;2022-07-17T08:30:39;102930.34;;;23.54;49.51
60437;BME280;46289;51.992;4.498;2022-07-17T08:33:13;102925.94;;;23.39;48.65
60437;BME280;46289;51.992;4.498;2022-07-17T08:35:44;102924.16;;;23.37;49.55
60437;BME280;46289;51.992;4.498;2022-07-17T08:38:16;102920.38;;;23.71;48.74
60437;BME280;46289;51.992;4.498;2022-07-17T08:40:46;102920.78;;;24.18;48.44
60437;BME280;46289;51.992;4.498;2022-07-17T08:43:22;102910.59;;;24.53;47.38
60437;BME280;46289;51.992;4.498;2022-07-17T08:45:52;102917.56;;;24.68;46.10
60437;BME280;46289;51.992;4.498;2022-07-17T08:48:26;102922.13;;;24.61;46.35
60437;BME280;46289;51.992;4.498;2022-07-17T08:51:00;102920.28;;;24.66;45.84
60437;BME280;46289;51.992;4.498;2022-07-17T08:53:31;102913.53;;;24.30;45.55
60437;BME280;46289;51.992;4.498;2022-07-17T08:56:02;102923.84;;;24.67;44.81
60437;BME280;46289;51.992;4.498;2022-07-17T08:58:35;102909.63;;;24.59;45.46
60437;BME280;46289;51.992;4.498;2022-07-17T09:01:05;102915.56;;;24.85;45.63
60437;BME280;46289;51.992;4.498;2022-07-17T09:03:36;102914.81;;;24.74;45.69
60437;BME280;46289;51.992;4.498;2022-07-17T09:06:18;102909.25;;;24.89;45.48
60437;BME280;46289;51.992;4.498;2022-07-17T09:08:48;102912.88;;;24.84;44.15
60437;BME280;46289;51.992;4.498;2022-07-17T09:11:18;102909.00;;;25.06;42.34
60437;BME280;46289;51.992;4.498;2022-07-17T09:13:53;102908.91;;;25.14;43.04
60437;BME280;46289;51.992;4.498;2022-07-17T09:16:23;102910.44;;;25.30;42.21
60437;BME280;46289;51.992;4.498;2022-07-17T09:18:54;102922.00;;;24.72;42.94
60437;BME280;46289;51.992;4.498;2022-07-17T09:21:26;102916.22;;;25.01;43.75
60437;BME280;46289;51.992;4.498;2022-07-17T09:24:00;102910.44;;;25.30;41.88
60437;BME280;46289;51.992;4.498;2022-07-17T09:26:34;102915.06;;;25.20;43.19
60437;BME280;46289;51.992;4.498;2022-07-17T09:29:07;102910.38;;;25.33;42.85
60437;BME280;46289;51.992;4.498;2022-07-17T09:31:43;102908.22;;;25.56;42.94
60437;BME280;46289;51.992;4.498;2022-07-17T09:34:16;102907.16;;;25.68;42.80
60437;BME280;46289;51.992;4.498;2022-07-17T09:36:58;102906.78;;;25.91;41.96
60437;BME280;46289;51.992;4.498;2022-07-17T09:39:37;102913.81;;;25.42;43.13
60437;BME280;46289;51.992;4.498;2022-07-17T09:42:21;102901.63;;;25.22;42.99
60437;BME280;46289;51.992;4.498;2022-07-17T09:44:57;102905.88;;;25.35;42.97
60437;BME280;46289;51.992;4.498;2022-07-17T09:47:29;102913.09;;;25.31;43.22
60437;BME280;46289;51.992;4.498;2022-07-17T09:50:01;102911.72;;;25.61;42.72
60437;BME280;46289;51.992;4.498;2022-07-17T09:52:34;102914.03;;;25.86;43.11
60437;BME280;46289;51.992;4.498;2022-07-17T09:55:06;102904.56;;;25.62;43.63
60437;BME280;46289;51.992;4.498;2022-07-17T09:57:56;102896.66;;;25.51;42.70
60437;BME280;46289;51.992;4.498;2022-07-17T10:00:31;102903.06;;;25.44;44.29
60437;BME280;46289;51.992;4.498;2022-07-17T10:03:05;102901.72;;;25.72;43.79
60437;BME280;46289;51.992;4.498;2022-07-17T10:05:37;102902.75;;;25.62;43.24
60437;BME280;46289;51.992;4.498;2022-07-17T10:08:12;102905.88;;;25.35;43.49
60437;BME280;46289;51.992;4.498;2022-07-17T10:10:43;102912.50;;;25.71;43.13
60437;BME280;46289;51.992;4.498;2022-07-17T10:13:14;102909.03;;;25.64;42.63
60437;BME280;46289;51.992;4.498;2022-07-17T10:15:50;102916.00;;;25.74;41.48
60437;BME280;46289;51.992;4.498;2022-07-17T10:18:21;102918.63;;;25.22;41.54
60437;BME280;46289;51.992;4.498;2022-07-17T10:21:13;102912.13;;;25.92;40.20
60437;BME280;46289;51.992;4.498;2022-07-17T10:23:48;102911.38;;;26.30;40.20
60437;BME280;46289;51.992;4.498;2022-07-17T10:26:30;102920.47;;;26.23;40.60
60437;BME280;46289;51.992;4.498;2022-07-17T10:29:01;102918.69;;;26.22;40.36
60437;BME280;46289;51.992;4.498;2022-07-17T10:31:33;102917.84;;;26.20;40.57
60437;BME280;46289;51.992;4.498;2022-07-17T10:34:05;102917.22;;;26.95;39.45
60437;BME280;46289;51.992;4.498;2022-07-17T10:36:36;102919.31;;;26.81;38.79
60437;BME280;46289;51.992;4.498;2022-07-17T10:39:15;102934.28;;;26.94;38.58
60437;BME280;46289;51.992;4.498;2022-07-17T10:41:56;102928.38;;;26.77;38.43
60437;BME280;46289;51.992;4.498;2022-07-17T10:44:27;102936.75;;;26.63;39.38
60437;BME280;46289;51.992;4.498;2022-07-17T10:47:01;102925.38;;;26.91;39.57
60437;BME280;46289;51.992;4.498;2022-07-17T10:49:34;102920.78;;;26.97;39.61
60437;BME280;46289;51.992;4.498;2022-07-17T10:52:05;102922.88;;;27.22;39.01
60437;BME280;46289;51.992;4.498;2022-07-17T10:54:35;102916.13;;;27.04;38.40
60437;BME280;46289;51.992;4.498;2022-07-17T10:57:04;102917.50;;;27.22;37.69
60437;BME280;46289;51.992;4.498;2022-07-17T10:59:35;102919.00;;;27.33;38.38
60437;BME280;46289;51.992;4.498;2022-07-17T11:02:13;102924.06;;;27.47;38.42
60437;BME280;46289;51.992;4.498;2022-07-17T11:04:43;102923.41;;;27.75;37.85
60437;BME280;46289;51.992;4.498;2022-07-17T11:07:13;102915.56;;;27.65;37.88
60437;BME280;46289;51.992;4.498;2022-07-17T11:09:47;102921.00;;;27.64;37.78
60437;BME280;46289;51.992;4.498;2022-07-17T11:12:17;102920.88;;;28.03;37.02
60437;BME280;46289;51.992;4.498;2022-07-17T11:14:47;102918.28;;;27.27;38.13
60437;BME280;46289;51.992;4.498;2022-07-17T11:17:20;102907.38;;;27.31;39.05
60437;BME280;46289;51.992;4.498;2022-07-17T11:19:50;102911.38;;;27.52;37.76
60437;BME280;46289;51.992;4.498;2022-07-17T11:22:22;102911.34;;;27.17;38.19
60437;BME280;46289;51.992;4.498;2022-07-17T11:24:54;102918.72;;;27.46;37.35
60437;BME280;46289;51.992;4.498;2022-07-17T11:27:25;102924.66;;;27.23;39.26
60437;BME280;46289;51.992;4.498;2022-07-17T11:30:00;102918.22;;;27.30;38.90
60437;BME280;46289;51.992;4.498;2022-07-17T11:32:37;102922.31;;;27.46;37.58
60437;BME280;46289;51.992;4.498;2022-07-17T11:35:17;102915.38;;;27.73;37.24
60437;BME280;46289;51.992;4.498;2022-07-17T11:38:07;102913.31;;;27.83;37.22
60437;BME280;46289;51.992;4.498;2022-07-17T11:40:45;102909.41;;;27.94;37.00
60437;BME280;46289;51.992;4.498;2022-07-17T11:43:28;102911.38;;;27.88;36.46
60437;BME280;46289;51.992;4.498;2022-07-17T11:45:58;102906.84;;;27.90;36.74
60437;BME280;46289;51.992;4.498;2022-07-17T11:48:32;102911.72;;;28.08;36.96
60437;BME280;46289;51.992;4.498;2022-07-17T11:51:03;102904.44;;;27.79;36.82
60437;BME280;46289;51.992;4.498;2022-07-17T11:53:37;102924.47;;;28.03;36.63
60437;BME280;46289;51.992;4.498;2022-07-17T11:56:20;102921.56;;;27.77;35.99
60437;BME280;46289;51.992;4.498;2022-07-17T11:58:52;102916.13;;;28.11;36.27
60437;BME280;46289;51.992;4.498;2022-07-17T12:01:28;102908.75;;;28.17;36.05
60437;BME280;46289;51.992;4.498;2022-07-17T12:04:07;102919.78;;;27.76;37.32
60437;BME280;46289;51.992;4.498;2022-07-17T12:06:44;102910.94;;;27.71;36.93
60437;BME280;46289;51.992;4.498;2022-07-17T12:09:15;102914.59;;;28.02;37.84
60437;BME280;46289;51.992;4.498;2022-07-17T12:11:55;102903.50;;;28.13;37.20
60437;BME280;46289;51.992;4.498;2022-07-17T12:14:27;102905.63;;;27.67;36.93
60437;BME280;46289;51.992;4.498;2022-07-17T12:17:04;102902.59;;;28.12;36.36
60437;BME280;46289;51.992;4.498;2022-07-17T12:19:36;102905.34;;;28.11;35.90
60437;BME280;46289;51.992;4.498;2022-07-17T12:22:07;102887.19;;;28.17;36.07
60437;BME280;46289;51.992;4.498;2022-07-17T12:24:39;102893.28;;;28.25;36.10
60437;BME280;46289;51.992;4.498;2022-07-17T12:27:12;102883.19;;;28.32;35.47
60437;BME280;46289;51.992;4.498;2022-07-17T12:29:44;102882.06;;;28.70;35.74
60437;BME280;46289;51.992;4.498;2022-07-17T12:32:16;102878.41;;;28.42;35.67
60437;BME280;46289;51.992;4.498;2022-07-17T12:34:52;102878.59;;;28.36;36.11
60437;BME280;46289;51.992;4.498;2022-07-17T12:37:27;102872.78;;;28.79;35.49
60437;BME280;46289;51.992;4.498;2022-07-17T12:39:57;102881.47;;;28.29;35.32
60437;BME280;46289;51.992;4.498;2022-07-17T12:42:27;102870.91;;;28.20;36.21
60437;BME280;46289;51.992;4.498;2022-07-17T12:44:57;102868.97;;;28.56;35.35
60437;BME280;46289;51.992;4.498;2022-07-17T12:47:29;102865.13;;;28.65;35.60
60437;BME280;46289;51.992;4.498;2022-07-17T12:50:01;102872.47;;;28.60;35.53
60437;BME280;46289;51.992;4.498;2022-07-17T12:52:32;102860.63;;;28.04;35.32
60437;BME280;46289;51.992;4.498;2022-07-17T12:55:02;102849.09;;;28.59;36.55
60437;BME280;46289;51.992;4.498;2022-07-17T12:57:33;102856.53;;;28.80;34.86
60437;BME280;46289;51.992;4.498;2022-07-17T13:00:05;102845.47;;;28.89;35.71
60437;BME280;46289;51.992;4.498;2022-07-17T13:02:37;102850.06;;;28.87;34.27
60437;BME280;46289;51.992;4.498;2022-07-17T13:05:29;102848.53;;;28.77;35.01
60437;BME280;46289;51.992;4.498;2022-07-17T13:07:59;102840.81;;;28.36;35.53
60437;BME280;46289;51.992;4.498;2022-07-17T13:10:30;102835.13;;;28.45;36.08
60437;BME280;46289;51.992;4.498;2022-07-17T13:13:00;102827.84;;;29.06;34.99